sensor_id;sensor_type;location;lat;lon;timestamp;P1;durP1;ratioP1;P2;durP2;ratioP2
56728;SDS011;42612;52.232;7.560;2023-05-10T00:01:04;2.92;;;2.35;;
56728;SDS011;42612;52.232;7.560;2023-05-10T00:03:30;2.45;;;2.25;;
56728;SDS011;42612;52.232;7.560;2023-05-10T00:05:56;2.00;;;1.80;;
56728;SDS011;42612;52.232;7.560;2023-05-10T00:08:22;2.83;;;2.33;;
56728;SDS011;42612;52.232;7.560;2023-05-10T00:10:48;2.20;;;2.10;;
56728;SDS011;42612;52.232;7.560;2023-05-10T00:13:14;2.42;;;2.22;;
56728;SDS011;42612;52.232;7.560;2023-05-10T00:15:40;2.03;;;1.83;;
56728;SDS011;42612;52.232;7.560;2023-05-10T00:18:05;2.72;;;2.28;;
56728;SDS011;42612;52.232;7.560;2023-05-10T00:20:31;2.22;;;2.03;;
56728;SDS011;42612;52.232;7.560;2023-05-10T00:22:57;2.15;;;1.98;;
56728;SDS011;42612;52.232;7.560;2023-05-10T00:25:22;2.67;;;2.47;;
56728;SDS011;42612;52.232;7.560;2023-05-10T00:27:48;2.55;;;2.35;;
56728;SDS011;42612;52.232;7.560;2023-05-10T00:30:14;2.70;;;2.50;;
56728;SDS011;42612;52.232;7.560;2023-05-10T00:32:40;2.58;;;2.38;;
56728;SDS011;42612;52.232;7.560;2023-05-10T00:35:06;2.47;;;2.28;;
56728;SDS011;42612;52.232;7.560;2023-05-10T00:37:32;2.58;;;2.38;;
56728;SDS011;42612;52.232;7.560;2023-05-10T00:39:58;3.00;;;2.80;;
56728;SDS011;42612;52.232;7.560;2023-05-10T00:42:24;2.45;;;2.25;;
56728;SDS011;42612;52.232;7.560;2023-05-10T00:44:49;2.47;;;2.28;;
56728;SDS011;42612;52.232;7.560;2023-05-10T00:47:15;2.97;;;2.78;;
56728;SDS011;42612;52.232;7.560;2023-05-10T00:49:42;2.72;;;2.53;;
56728;SDS011;42612;52.232;7.560;2023-05-10T00:52:08;2.72;;;2.53;;
56728;SDS011;42612;52.232;7.560;2023-05-10T00:54:34;2.55;;;2.35;;
56728;SDS011;42612;52.232;7.560;2023-05-10T00:57:00;2.65;;;2.45;;
56728;SDS011;42612;52.232;7.560;2023-05-10T00:59:26;4.18;;;3.28;;
56728;SDS011;42612;52.232;7.560;2023-05-10T01:01:52;3.33;;;3.03;;
56728;SDS011;42612;52.232;7.560;2023-05-10T01:04:18;3.13;;;2.90;;
56728;SDS011;42612;52.232;7.560;2023-05-10T01:06:46;3.20;;;2.92;;
56728;SDS011;42612;52.232;7.560;2023-05-10T01:09:12;3.50;;;3.20;;
56728;SDS011;42612;52.232;7.560;2023-05-10T01:11:38;5.63;;;3.65;;
56728;SDS011;42612;52.232;7.560;2023-05-10T01:14:04;3.42;;;3.13;;
56728;SDS011;42612;52.232;7.560;2023-05-10T01:16:40;3.83;;;3.00;;
56728;SDS011;42612;52.232;7.560;2023-05-10T01:19:12;4.05;;;3.65;;
56728;SDS011;42612;52.232;7.560;2023-05-10T01:21:49;3.53;;;3.17;;
56728;SDS011;42612;52.232;7.560;2023-05-10T01:25:03;3.63;;;3.30;;
56728;SDS011;42612;52.232;7.560;2023-05-10T01:33:52;3.90;;;3.25;;
56728;SDS011;42612;52.232;7.560;2023-05-10T01:36:31;3.55;;;3.25;;
56728;SDS011;42612;52.232;7.560;2023-05-10T01:44:29;3.40;;;3.10;;
56728;SDS011;42612;52.232;7.560;2023-05-10T01:50:15;1.70;;;1.60;;
56728;SDS011;42612;52.232;7.560;2023-05-10T01:52:50;1.58;;;1.48;;
56728;SDS011;42612;52.232;7.560;2023-05-10T01:55:20;1.75;;;1.65;;
56728;SDS011;42612;52.232;7.560;2023-05-10T01:58:09;1.85;;;1.75;;
56728;SDS011;42612;52.232;7.560;2023-05-10T02:00:45;1.52;;;1.42;;
56728;SDS011;42612;52.232;7.560;2023-05-10T02:03:13;2.00;;;1.75;;
56728;SDS011;42612;52.232;7.560;2023-05-10T02:05:41;1.98;;;1.88;;
56728;SDS011;42612;52.232;7.560;2023-05-10T02:08:09;1.90;;;1.80;;
56728;SDS011;42612;52.232;7.560;2023-05-10T02:10:36;2.95;;;2.03;;
56728;SDS011;42612;52.232;7.560;2023-05-10T02:13:04;4.40;;;2.85;;
56728;SDS011;42612;52.232;7.560;2023-05-10T02:15:32;4.80;;;2.53;;
56728;SDS011;42612;52.232;7.560;2023-05-10T02:17:58;2.30;;;2.10;;
56728;SDS011;42612;52.232;7.560;2023-05-10T02:20:27;2.60;;;2.40;;
56728;SDS011;42612;52.232;7.560;2023-05-10T02:23:01;2.17;;;2.05;;
56728;SDS011;42612;52.232;7.560;2023-05-10T02:25:28;2.77;;;2.30;;
56728;SDS011;42612;52.232;7.560;2023-05-10T02:27:55;2.53;;;2.33;;
56728;SDS011;42612;52.232;7.560;2023-05-10T02:30:22;4.95;;;2.42;;
56728;SDS011;42612;52.232;7.560;2023-05-10T02:32:49;1.97;;;1.83;;
56728;SDS011;42612;52.232;7.560;2023-05-10T02:35:16;2.63;;;2.42;;
56728;SDS011;42612;52.232;7.560;2023-05-10T02:37:42;2.95;;;2.75;;
56728;SDS011;42612;52.232;7.560;2023-05-10T02:40:10;3.17;;;2.90;;
56728;SDS011;42612;52.232;7.560;2023-05-10T02:42:38;3.65;;;2.47;;
56728;SDS011;42612;52.232;7.560;2023-05-10T02:45:08;5.07;;;3.13;;
56728;SDS011;42612;52.232;7.560;2023-05-10T02:47:38;3.47;;;3.17;;
56728;SDS011;42612;52.232;7.560;2023-05-10T02:50:04;2.97;;;2.70;;
56728;SDS011;42612;52.232;7.560;2023-05-10T02:52:36;3.80;;;3.47;;
56728;SDS011;42612;52.232;7.560;2023-05-10T02:55:12;3.42;;;3.13;;
56728;SDS011;42612;52.232;7.560;2023-05-10T02:57:43;3.97;;;3.55;;
56728;SDS011;42612;52.232;7.560;2023-05-10T03:00:16;2.78;;;2.58;;
56728;SDS011;42612;52.232;7.560;2023-05-10T03:02:42;3.72;;;3.40;;
56728;SDS011;42612;52.232;7.560;2023-05-10T03:05:07;3.53;;;3.22;;
56728;SDS011;42612;52.232;7.560;2023-05-10T03:07:33;2.90;;;2.70;;
56728;SDS011;42612;52.232;7.560;2023-05-10T03:09:59;3.03;;;2.83;;
56728;SDS011;42612;52.232;7.560;2023-05-10T03:18:15;3.10;;;2.88;;
56728;SDS011;42612;52.232;7.560;2023-05-10T03:20:54;2.80;;;2.60;;
56728;SDS011;42612;52.232;7.560;2023-05-10T03:23:44;4.47;;;3.05;;
56728;SDS011;42612;52.232;7.560;2023-05-10T03:26:20;3.15;;;2.85;;
56728;SDS011;42612;52.232;7.560;2023-05-10T03:28:50;2.75;;;2.55;;
56728;SDS011;42612;52.232;7.560;2023-05-10T03:31:18;2.70;;;2.50;;
56728;SDS011;42612;52.232;7.560;2023-05-10T03:33:47;3.08;;;2.78;;
56728;SDS011;42612;52.232;7.560;2023-05-10T03:36:14;2.65;;;2.45;;
56728;SDS011;42612;52.232;7.560;2023-05-10T03:38:40;2.95;;;2.38;;
56728;SDS011;42612;52.232;7.560;2023-05-10T03:41:06;3.17;;;2.92;;
56728;SDS011;42612;52.232;7.560;2023-05-10T03:43:31;2.83;;;2.63;;
56728;SDS011;42612;52.232;7.560;2023-05-10T03:45:57;4.63;;;3.03;;
56728;SDS011;42612;52.232;7.560;2023-05-10T03:48:23;3.10;;;2.88;;
56728;SDS011;42612;52.232;7.560;2023-05-10T03:50:49;2.80;;;2.55;;
56728;SDS011;42612;52.232;7.560;2023-05-10T03:53:14;3.55;;;3.08;;
56728;SDS011;42612;52.232;7.560;2023-05-10T03:55:40;2.95;;;2.65;;
56728;SDS011;42612;52.232;7.560;2023-05-10T03:58:06;3.45;;;3.03;;
56728;SDS011;42612;52.232;7.560;2023-05-10T04:00:35;2.85;;;2.55;;
56728;SDS011;42612;52.232;7.560;2023-05-10T04:03:01;2.95;;;2.65;;
56728;SDS011;42612;52.232;7.560;2023-05-10T04:05:27;3.40;;;3.10;;
56728;SDS011;42612;52.232;7.560;2023-05-10T04:07:53;4.63;;;3.15;;
56728;SDS011;42612;52.232;7.560;2023-05-10T04:10:19;3.60;;;3.03;;
56728;SDS011;42612;52.232;7.560;2023-05-10T04:12:45;3.83;;;3.45;;
56728;SDS011;42612;52.232;7.560;2023-05-10T04:15:11;4.25;;;3.72;;
56728;SDS011;42612;52.232;7.560;2023-05-10T04:17:36;3.97;;;3.40;;
56728;SDS011;42612;52.232;7.560;2023-05-10T04:20:02;3.33;;;3.03;;
56728;SDS011;42612;52.232;7.560;2023-05-10T04:22:29;5.00;;;3.47;;
56728;SDS011;42612;52.232;7.560;2023-05-10T04:24:55;4.00;;;3.53;;
56728;SDS011;42612;52.232;7.560;2023-05-10T04:27:21;4.03;;;3.60;;
56728;SDS011;42612;52.232;7.560;2023-05-10T04:29:46;3.88;;;3.17;;
56728;SDS011;42612;52.232;7.560;2023-05-10T04:32:12;4.35;;;3.22;;
56728;SDS011;42612;52.232;7.560;2023-05-10T04:34:38;4.60;;;3.65;;
56728;SDS011;42612;52.232;7.560;2023-05-10T04:37:03;3.60;;;3.30;;
56728;SDS011;42612;52.232;7.560;2023-05-10T04:39:29;3.78;;;3.40;;
56728;SDS011;42612;52.232;7.560;2023-05-10T04:41:55;4.20;;;3.75;;
56728;SDS011;42612;52.232;7.560;2023-05-10T04:44:20;4.22;;;3.42;;
56728;SDS011;42612;52.232;7.560;2023-05-10T04:46:46;5.82;;;3.63;;
56728;SDS011;42612;52.232;7.560;2023-05-10T04:49:12;4.00;;;3.47;;
56728;SDS011;42612;52.232;7.560;2023-05-10T04:51:37;3.92;;;3.50;;
56728;SDS011;42612;52.232;7.560;2023-05-10T04:54:03;3.85;;;3.50;;
56728;SDS011;42612;52.232;7.560;2023-05-10T04:56:29;4.00;;;3.50;;
56728;SDS011;42612;52.232;7.560;2023-05-10T04:58:54;5.60;;;3.80;;
56728;SDS011;42612;52.232;7.560;2023-05-10T05:01:20;5.45;;;3.88;;
56728;SDS011;42612;52.232;7.560;2023-05-10T05:03:46;4.32;;;3.90;;
56728;SDS011;42612;52.232;7.560;2023-05-10T05:06:11;4.55;;;3.83;;
56728;SDS011;42612;52.232;7.560;2023-05-10T05:08:37;4.57;;;3.67;;
56728;SDS011;42612;52.232;7.560;2023-05-10T05:11:03;5.20;;;4.10;;
56728;SDS011;42612;52.232;7.560;2023-05-10T05:13:28;4.80;;;4.30;;
56728;SDS011;42612;52.232;7.560;2023-05-10T05:15:54;5.38;;;4.45;;
56728;SDS011;42612;52.232;7.560;2023-05-10T05:18:20;5.70;;;4.60;;
56728;SDS011;42612;52.232;7.560;2023-05-10T05:20:46;4.85;;;4.15;;
56728;SDS011;42612;52.232;7.560;2023-05-10T05:23:11;5.60;;;4.68;;
56728;SDS011;42612;52.232;7.560;2023-05-10T05:25:37;7.40;;;4.90;;
56728;SDS011;42612;52.232;7.560;2023-05-10T05:28:02;6.57;;;4.57;;
56728;SDS011;42612;52.232;7.560;2023-05-10T05:30:28;7.43;;;4.68;;
56728;SDS011;42612;52.232;7.560;2023-05-10T05:32:54;5.88;;;4.82;;
56728;SDS011;42612;52.232;7.560;2023-05-10T05:35:20;6.38;;;5.13;;
56728;SDS011;42612;52.232;7.560;2023-05-10T05:37:45;14.77;;;10.85;;
56728;SDS011;42612;52.232;7.560;2023-05-10T05:40:14;10.68;;;7.30;;
56728;SDS011;42612;52.232;7.560;2023-05-10T05:42:40;6.20;;;5.15;;
56728;SDS011;42612;52.232;7.560;2023-05-10T05:45:06;6.75;;;4.97;;
56728;SDS011;42612;52.232;7.560;2023-05-10T05:49:59;7.80;;;5.63;;
56728;SDS011;42612;52.232;7.560;2023-05-10T05:52:25;8.10;;;6.20;;
56728;SDS011;42612;52.232;7.560;2023-05-10T05:54:50;10.32;;;5.30;;
56728;SDS011;42612;52.232;7.560;2023-05-10T05:57:16;7.70;;;5.57;;
56728;SDS011;42612;52.232;7.560;2023-05-10T05:59:42;9.93;;;6.07;;
56728;SDS011;42612;52.232;7.560;2023-05-10T06:02:09;8.20;;;5.40;;
56728;SDS011;42612;52.232;7.560;2023-05-10T06:04:35;7.63;;;5.22;;
56728;SDS011;42612;52.232;7.560;2023-05-10T06:07:00;10.25;;;6.95;;
56728;SDS011;42612;52.232;7.560;2023-05-10T06:09:26;10.88;;;7.47;;
56728;SDS011;42612;52.232;7.560;2023-05-10T06:11:52;12.07;;;7.55;;
56728;SDS011;42612;52.232;7.560;2023-05-10T06:14:19;8.50;;;6.50;;
56728;SDS011;42612;52.232;7.560;2023-05-10T06:16:46;11.77;;;7.63;;
56728;SDS011;42612;52.232;7.560;2023-05-10T06:19:11;12.10;;;8.23;;
56728;SDS011;42612;52.232;7.560;2023-05-10T06:21:37;11.73;;;8.63;;
56728;SDS011;42612;52.232;7.560;2023-05-10T06:24:03;12.52;;;8.15;;
56728;SDS011;42612;52.232;7.560;2023-05-10T06:26:30;13.40;;;8.60;;
56728;SDS011;42612;52.232;7.560;2023-05-10T06:28:55;15.40;;;9.20;;
56728;SDS011;42612;52.232;7.560;2023-05-10T06:31:21;12.48;;;8.10;;
56728;SDS011;42612;52.232;7.560;2023-05-10T06:33:47;16.27;;;9.23;;
56728;SDS011;42612;52.232;7.560;2023-05-10T06:36:13;15.18;;;9.65;;
56728;SDS011;42612;52.232;7.560;2023-05-10T06:38:38;13.13;;;8.50;;
56728;SDS011;42612;52.232;7.560;2023-05-10T06:41:04;14.68;;;9.40;;
56728;SDS011;42612;52.232;7.560;2023-05-10T06:43:30;18.92;;;10.07;;
56728;SDS011;42612;52.232;7.560;2023-05-10T06:45:56;16.02;;;9.20;;
56728;SDS011;42612;52.232;7.560;2023-05-10T06:48:22;17.65;;;10.07;;
56728;SDS011;42612;52.232;7.560;2023-05-10T06:50:48;17.90;;;9.65;;
56728;SDS011;42612;52.232;7.560;2023-05-10T06:53:14;20.83;;;12.18;;
56728;SDS011;42612;52.232;7.560;2023-05-10T06:55:40;17.52;;;10.90;;
56728;SDS011;42612;52.232;7.560;2023-05-10T06:58:06;20.80;;;11.85;;
56728;SDS011;42612;52.232;7.560;2023-05-10T07:00:31;19.02;;;11.07;;
56728;SDS011;42612;52.232;7.560;2023-05-10T07:02:57;20.80;;;11.90;;
56728;SDS011;42612;52.232;7.560;2023-05-10T07:05:23;26.25;;;12.95;;
56728;SDS011;42612;52.232;7.560;2023-05-10T07:07:49;22.73;;;12.65;;
56728;SDS011;42612;52.232;7.560;2023-05-10T07:10:15;21.77;;;12.90;;
56728;SDS011;42612;52.232;7.560;2023-05-10T07:12:40;24.05;;;13.18;;
56728;SDS011;42612;52.232;7.560;2023-05-10T07:15:06;23.50;;;13.77;;
56728;SDS011;42612;52.232;7.560;2023-05-10T07:17:33;21.95;;;13.32;;
56728;SDS011;42612;52.232;7.560;2023-05-10T07:19:59;24.23;;;13.07;;
56728;SDS011;42612;52.232;7.560;2023-05-10T07:22:25;22.83;;;12.15;;
56728;SDS011;42612;52.232;7.560;2023-05-10T07:24:51;21.15;;;13.35;;
56728;SDS011;42612;52.232;7.560;2023-05-10T07:27:16;25.23;;;13.82;;
56728;SDS011;42612;52.232;7.560;2023-05-10T07:29:42;25.52;;;13.43;;
56728;SDS011;42612;52.232;7.560;2023-05-10T07:32:08;26.38;;;14.90;;
56728;SDS011;42612;52.232;7.560;2023-05-10T07:34:33;24.38;;;12.13;;
56728;SDS011;42612;52.232;7.560;2023-05-10T07:36:59;24.60;;;14.25;;
56728;SDS011;42612;52.232;7.560;2023-05-10T07:39:26;23.88;;;14.38;;
56728;SDS011;42612;52.232;7.560;2023-05-10T07:41:52;24.23;;;14.82;;
56728;SDS011;42612;52.232;7.560;2023-05-10T07:44:21;23.48;;;14.05;;
56728;SDS011;42612;52.232;7.560;2023-05-10T07:46:47;23.88;;;13.65;;
56728;SDS011;42612;52.232;7.560;2023-05-10T07:49:13;28.67;;;13.68;;
56728;SDS011;42612;52.232;7.560;2023-05-10T07:51:39;23.48;;;13.85;;
56728;SDS011;42612;52.232;7.560;2023-05-10T07:54:06;22.20;;;13.38;;
56728;SDS011;42612;52.232;7.560;2023-05-10T07:56:32;21.52;;;12.98;;
56728;SDS011;42612;52.232;7.560;2023-05-10T07:59:01;21.27;;;12.50;;
56728;SDS011;42612;52.232;7.560;2023-05-10T08:01:32;26.05;;;13.55;;
56728;SDS011;42612;52.232;7.560;2023-05-10T08:03:59;20.33;;;11.18;;
56728;SDS011;42612;52.232;7.560;2023-05-10T08:06:26;23.15;;;12.27;;
56728;SDS011;42612;52.232;7.560;2023-05-10T08:08:53;21.37;;;12.23;;
56728;SDS011;42612;52.232;7.560;2023-05-10T08:11:19;19.73;;;12.32;;
56728;SDS011;42612;52.232;7.560;2023-05-10T08:13:46;17.95;;;11.38;;
56728;SDS011;42612;52.232;7.560;2023-05-10T08:18:39;21.08;;;12.45;;
56728;SDS011;42612;52.232;7.560;2023-05-10T08:21:05;19.65;;;11.85;;
56728;SDS011;42612;52.232;7.560;2023-05-10T08:23:31;22.27;;;12.57;;
56728;SDS011;42612;52.232;7.560;2023-05-10T08:25:57;18.70;;;11.15;;
56728;SDS011;42612;52.232;7.560;2023-05-10T08:28:23;19.80;;;10.85;;
56728;SDS011;42612;52.232;7.560;2023-05-10T08:30:49;19.48;;;11.68;;
56728;SDS011;42612;52.232;7.560;2023-05-10T08:33:17;19.87;;;12.17;;
56728;SDS011;42612;52.232;7.560;2023-05-10T08:35:43;20.10;;;11.60;;
56728;SDS011;42612;52.232;7.560;2023-05-10T08:38:09;22.77;;;11.15;;
56728;SDS011;42612;52.232;7.560;2023-05-10T08:40:36;18.33;;;11.15;;
56728;SDS011;42612;52.232;7.560;2023-05-10T08:43:07;19.92;;;11.70;;
56728;SDS011;42612;52.232;7.560;2023-05-10T08:45:40;20.08;;;12.27;;
56728;SDS011;42612;52.232;7.560;2023-05-10T08:48:12;20.25;;;11.82;;
56728;SDS011;42612;52.232;7.560;2023-05-10T08:50:39;20.05;;;12.68;;
56728;SDS011;42612;52.232;7.560;2023-05-10T08:58:05;17.98;;;10.73;;
56728;SDS011;42612;52.232;7.560;2023-05-10T09:00:31;22.80;;;11.75;;
56728;SDS011;42612;52.232;7.560;2023-05-10T09:02:58;21.30;;;11.63;;
56728;SDS011;42612;52.232;7.560;2023-05-10T09:05:25;19.45;;;11.55;;
56728;SDS011;42612;52.232;7.560;2023-05-10T09:07:51;21.02;;;12.95;;
56728;SDS011;42612;52.232;7.560;2023-05-10T09:10:17;21.57;;;12.57;;
56728;SDS011;42612;52.232;7.560;2023-05-10T09:12:44;20.85;;;11.93;;
56728;SDS011;42612;52.232;7.560;2023-05-10T09:15:11;23.73;;;12.97;;
56728;SDS011;42612;52.232;7.560;2023-05-10T09:17:44;19.70;;;11.82;;
56728;SDS011;42612;52.232;7.560;2023-05-10T09:20:10;22.95;;;11.30;;
56728;SDS011;42612;52.232;7.560;2023-05-10T09:22:36;17.50;;;11.82;;
56728;SDS011;42612;52.232;7.560;2023-05-10T09:25:13;19.83;;;12.37;;
56728;SDS011;42612;52.232;7.560;2023-05-10T09:27:40;22.08;;;11.77;;
56728;SDS011;42612;52.232;7.560;2023-05-10T09:30:10;19.50;;;11.43;;
56728;SDS011;42612;52.232;7.560;2023-05-10T09:32:41;19.27;;;12.05;;
56728;SDS011;42612;52.232;7.560;2023-05-10T09:35:09;20.23;;;11.80;;
56728;SDS011;42612;52.232;7.560;2023-05-10T09:37:41;19.25;;;11.38;;
56728;SDS011;42612;52.232;7.560;2023-05-10T09:40:20;20.13;;;11.57;;
56728;SDS011;42612;52.232;7.560;2023-05-10T09:42:51;19.83;;;11.50;;
56728;SDS011;42612;52.232;7.560;2023-05-10T09:45:22;21.10;;;11.13;;
56728;SDS011;42612;52.232;7.560;2023-05-10T09:47:50;18.33;;;10.95;;
56728;SDS011;42612;52.232;7.560;2023-05-10T09:50:15;18.20;;;10.13;;
56728;SDS011;42612;52.232;7.560;2023-05-10T09:52:49;18.58;;;10.30;;
56728;SDS011;42612;52.232;7.560;2023-05-10T09:55:17;16.63;;;11.20;;
56728;SDS011;42612;52.232;7.560;2023-05-10T09:57:46;16.88;;;10.20;;
56728;SDS011;42612;52.232;7.560;2023-05-10T10:00:17;17.55;;;11.55;;
56728;SDS011;42612;52.232;7.560;2023-05-10T10:02:45;18.95;;;11.30;;
56728;SDS011;42612;52.232;7.560;2023-05-10T10:05:19;23.63;;;13.27;;
56728;SDS011;42612;52.232;7.560;2023-05-10T10:07:45;18.98;;;11.43;;
56728;SDS011;42612;52.232;7.560;2023-05-10T10:10:11;20.77;;;11.85;;
56728;SDS011;42612;52.232;7.560;2023-05-10T10:12:41;20.50;;;11.07;;
56728;SDS011;42612;52.232;7.560;2023-05-10T10:15:07;17.95;;;11.10;;
56728;SDS011;42612;52.232;7.560;2023-05-10T10:17:35;16.17;;;9.05;;
56728;SDS011;42612;52.232;7.560;2023-05-10T10:20:20;16.95;;;9.88;;
56728;SDS011;42612;52.232;7.560;2023-05-10T10:22:47;15.70;;;9.27;;
56728;SDS011;42612;52.232;7.560;2023-05-10T10:25:17;16.17;;;9.48;;
56728;SDS011;42612;52.232;7.560;2023-05-10T10:36:05;13.15;;;8.75;;
56728;SDS011;42612;52.232;7.560;2023-05-10T10:55:11;15.63;;;8.50;;
56728;SDS011;42612;52.232;7.560;2023-05-10T11:07:53;14.30;;;8.10;;
56728;SDS011;42612;52.232;7.560;2023-05-10T11:10:20;13.45;;;8.80;;
56728;SDS011;42612;52.232;7.560;2023-05-10T11:12:51;15.00;;;9.63;;
56728;SDS011;42612;52.232;7.560;2023-05-10T11:15:31;16.90;;;9.52;;
56728;SDS011;42612;52.232;7.560;2023-05-10T11:18:23;12.30;;;8.38;;
56728;SDS011;42612;52.232;7.560;2023-05-10T11:23:31;12.95;;;8.18;;
56728;SDS011;42612;52.232;7.560;2023-05-10T11:26:13;13.27;;;7.85;;
56728;SDS011;42612;52.232;7.560;2023-05-10T11:28:45;16.00;;;8.40;;
56728;SDS011;42612;52.232;7.560;2023-05-10T11:31:13;12.82;;;8.40;;
56728;SDS011;42612;52.232;7.560;2023-05-10T11:33:50;15.73;;;7.75;;
56728;SDS011;42612;52.232;7.560;2023-05-10T11:36:20;12.75;;;8.15;;
56728;SDS011;42612;52.232;7.560;2023-05-10T11:38:51;11.95;;;8.32;;
56728;SDS011;42612;52.232;7.560;2023-05-10T11:41:18;12.30;;;8.77;;
56728;SDS011;42612;52.232;7.560;2023-05-10T11:43:51;16.50;;;8.27;;
56728;SDS011;42612;52.232;7.560;2023-05-10T11:46:19;11.88;;;6.85;;
56728;SDS011;42612;52.232;7.560;2023-05-10T11:48:52;14.95;;;7.30;;
56728;SDS011;42612;52.232;7.560;2023-05-10T11:51:22;14.80;;;7.95;;
56728;SDS011;42612;52.232;7.560;2023-05-10T11:53:49;16.23;;;7.95;;
56728;SDS011;42612;52.232;7.560;2023-05-10T11:56:20;11.35;;;5.82;;
56728;SDS011;42612;52.232;7.560;2023-05-10T11:58:52;8.95;;;5.93;;
56728;SDS011;42612;52.232;7.560;2023-05-10T12:01:22;10.75;;;6.22;;
56728;SDS011;42612;52.232;7.560;2023-05-10T12:03:50;12.98;;;8.00;;
56728;SDS011;42612;52.232;7.560;2023-05-10T12:06:37;12.45;;;7.82;;
56728;SDS011;42612;52.232;7.560;2023-05-10T12:09:06;14.95;;;8.63;;
56728;SDS011;42612;52.232;7.560;2023-05-10T12:11:35;13.63;;;7.85;;
56728;SDS011;42612;52.232;7.560;2023-05-10T12:14:04;12.73;;;8.23;;
56728;SDS011;42612;52.232;7.560;2023-05-10T12:16:30;12.90;;;8.03;;
56728;SDS011;42612;52.232;7.560;2023-05-10T12:18:57;17.70;;;8.93;;
56728;SDS011;42612;52.232;7.560;2023-05-10T12:21:24;14.10;;;8.75;;
56728;SDS011;42612;52.232;7.560;2023-05-10T12:23:52;12.07;;;7.93;;
56728;SDS011;42612;52.232;7.560;2023-05-10T12:26:22;12.85;;;8.57;;
56728;SDS011;42612;52.232;7.560;2023-05-10T12:28:49;15.30;;;9.20;;
56728;SDS011;42612;52.232;7.560;2023-05-10T12:31:15;12.68;;;8.00;;
56728;SDS011;42612;52.232;7.560;2023-05-10T12:33:41;13.85;;;7.85;;
56728;SDS011;42612;52.232;7.560;2023-05-10T12:36:13;13.10;;;7.97;;
56728;SDS011;42612;52.232;7.560;2023-05-10T12:38:43;12.65;;;7.45;;
56728;SDS011;42612;52.232;7.560;2023-05-10T12:41:14;11.70;;;7.85;;
56728;SDS011;42612;52.232;7.560;2023-05-10T12:43:41;12.52;;;7.78;;
56728;SDS011;42612;52.232;7.560;2023-05-10T12:46:14;10.27;;;6.32;;
56728;SDS011;42612;52.232;7.560;2023-05-10T12:48:42;9.23;;;6.63;;
56728;SDS011;42612;52.232;7.560;2023-05-10T12:51:08;11.48;;;6.68;;
56728;SDS011;42612;52.232;7.560;2023-05-10T12:53:37;11.05;;;6.82;;
56728;SDS011;42612;52.232;7.560;2023-05-10T12:56:03;10.77;;;6.75;;
56728;SDS011;42612;52.232;7.560;2023-05-10T12:58:30;19.30;;;13.67;;
56728;SDS011;42612;52.232;7.560;2023-05-10T13:00:57;12.50;;;7.47;;
56728;SDS011;42612;52.232;7.560;2023-05-10T13:03:24;13.90;;;7.30;;
56728;SDS011;42612;52.232;7.560;2023-05-10T13:05:50;13.68;;;7.63;;
56728;SDS011;42612;52.232;7.560;2023-05-10T13:08:15;11.40;;;7.00;;
56728;SDS011;42612;52.232;7.560;2023-05-10T13:10:41;11.25;;;7.70;;
56728;SDS011;42612;52.232;7.560;2023-05-10T13:13:07;12.00;;;7.53;;
56728;SDS011;42612;52.232;7.560;2023-05-10T13:15:33;12.90;;;6.97;;
56728;SDS011;42612;52.232;7.560;2023-05-10T13:17:59;12.35;;;7.38;;
56728;SDS011;42612;52.232;7.560;2023-05-10T13:20:25;9.95;;;6.95;;
56728;SDS011;42612;52.232;7.560;2023-05-10T13:22:51;13.02;;;7.20;;
56728;SDS011;42612;52.232;7.560;2023-05-10T13:25:16;11.68;;;7.13;;
56728;SDS011;42612;52.232;7.560;2023-05-10T13:27:42;10.90;;;6.40;;
56728;SDS011;42612;52.232;7.560;2023-05-10T13:30:08;8.82;;;6.80;;
56728;SDS011;42612;52.232;7.560;2023-05-10T13:32:36;8.27;;;6.45;;
56728;SDS011;42612;52.232;7.560;2023-05-10T13:35:02;9.88;;;6.30;;
56728;SDS011;42612;52.232;7.560;2023-05-10T13:37:28;11.20;;;5.97;;
56728;SDS011;42612;52.232;7.560;2023-05-10T13:40:00;8.73;;;5.70;;
56728;SDS011;42612;52.232;7.560;2023-05-10T13:42:26;11.52;;;6.80;;
56728;SDS011;42612;52.232;7.560;2023-05-10T13:44:52;10.57;;;6.50;;
56728;SDS011;42612;52.232;7.560;2023-05-10T13:47:17;10.27;;;6.45;;
56728;SDS011;42612;52.232;7.560;2023-05-10T13:49:43;11.30;;;6.72;;
56728;SDS011;42612;52.232;7.560;2023-05-10T13:52:09;9.13;;;6.78;;
56728;SDS011;42612;52.232;7.560;2023-05-10T13:54:38;10.88;;;6.38;;
56728;SDS011;42612;52.232;7.560;2023-05-10T13:57:04;9.50;;;6.55;;
56728;SDS011;42612;52.232;7.560;2023-05-10T13:59:30;10.07;;;6.63;;
56728;SDS011;42612;52.232;7.560;2023-05-10T14:01:59;8.70;;;5.82;;
56728;SDS011;42612;52.232;7.560;2023-05-10T14:04:27;9.68;;;6.13;;
56728;SDS011;42612;52.232;7.560;2023-05-10T14:06:54;9.13;;;6.07;;
56728;SDS011;42612;52.232;7.560;2023-05-10T14:09:19;10.63;;;6.57;;
56728;SDS011;42612;52.232;7.560;2023-05-10T14:11:45;10.38;;;6.47;;
56728;SDS011;42612;52.232;7.560;2023-05-10T14:14:11;11.80;;;7.20;;
56728;SDS011;42612;52.232;7.560;2023-05-10T14:16:38;9.45;;;6.40;;
56728;SDS011;42612;52.232;7.560;2023-05-10T14:19:08;8.82;;;6.13;;
56728;SDS011;42612;52.232;7.560;2023-05-10T14:21:34;10.98;;;6.10;;
56728;SDS011;42612;52.232;7.560;2023-05-10T14:24:00;10.05;;;5.28;;
56728;SDS011;42612;52.232;7.560;2023-05-10T14:26:25;8.52;;;5.50;;
56728;SDS011;42612;52.232;7.560;2023-05-10T14:28:52;7.70;;;4.35;;
56728;SDS011;42612;52.232;7.560;2023-05-10T14:31:18;8.35;;;4.55;;
56728;SDS011;42612;52.232;7.560;2023-05-10T14:33:45;7.57;;;5.03;;
56728;SDS011;42612;52.232;7.560;2023-05-10T14:36:12;8.55;;;5.22;;
56728;SDS011;42612;52.232;7.560;2023-05-10T14:38:39;8.13;;;4.53;;
56728;SDS011;42612;52.232;7.560;2023-05-10T14:41:05;7.00;;;5.20;;
56728;SDS011;42612;52.232;7.560;2023-05-10T14:43:31;7.35;;;5.07;;
56728;SDS011;42612;52.232;7.560;2023-05-10T14:45:57;8.07;;;5.00;;
56728;SDS011;42612;52.232;7.560;2023-05-10T14:48:23;6.18;;;4.22;;
56728;SDS011;42612;52.232;7.560;2023-05-10T14:50:49;7.38;;;4.63;;
56728;SDS011;42612;52.232;7.560;2023-05-10T14:53:15;8.02;;;5.30;;
56728;SDS011;42612;52.232;7.560;2023-05-10T14:55:41;9.55;;;6.03;;
56728;SDS011;42612;52.232;7.560;2023-05-10T14:58:07;9.38;;;4.78;;
56728;SDS011;42612;52.232;7.560;2023-05-10T15:00:32;7.28;;;5.32;;
56728;SDS011;42612;52.232;7.560;2023-05-10T15:02:58;6.65;;;5.40;;
56728;SDS011;42612;52.232;7.560;2023-05-10T15:05:24;7.72;;;5.13;;
56728;SDS011;42612;52.232;7.560;2023-05-10T15:07:50;7.43;;;5.25;;
56728;SDS011;42612;52.232;7.560;2023-05-10T15:10:15;6.95;;;4.82;;
56728;SDS011;42612;52.232;7.560;2023-05-10T15:12:41;6.95;;;4.60;;
56728;SDS011;42612;52.232;7.560;2023-05-10T15:15:07;8.20;;;5.10;;
56728;SDS011;42612;52.232;7.560;2023-05-10T15:17:33;5.93;;;4.95;;
56728;SDS011;42612;52.232;7.560;2023-05-10T15:19:59;6.00;;;4.63;;
56728;SDS011;42612;52.232;7.560;2023-05-10T15:22:27;7.53;;;4.57;;
56728;SDS011;42612;52.232;7.560;2023-05-10T15:24:53;8.23;;;4.78;;
56728;SDS011;42612;52.232;7.560;2023-05-10T15:27:19;6.20;;;4.70;;
56728;SDS011;42612;52.232;7.560;2023-05-10T15:29:45;10.55;;;5.60;;
56728;SDS011;42612;52.232;7.560;2023-05-10T15:32:10;6.07;;;4.95;;
56728;SDS011;42612;52.232;7.560;2023-05-10T15:34:36;8.10;;;5.75;;
56728;SDS011;42612;52.232;7.560;2023-05-10T15:37:02;10.38;;;5.72;;
56728;SDS011;42612;52.232;7.560;2023-05-10T15:39:27;7.30;;;5.78;;
56728;SDS011;42612;52.232;7.560;2023-05-10T15:41:53;6.38;;;5.03;;
56728;SDS011;42612;52.232;7.560;2023-05-10T15:44:19;10.52;;;5.35;;
56728;SDS011;42612;52.232;7.560;2023-05-10T15:46:44;6.03;;;4.65;;
56728;SDS011;42612;52.232;7.560;2023-05-10T15:49:10;7.47;;;5.07;;